sensor_id;sensor_type;location;lat;lon;timestamp;P1;durP1;ratioP1;P2;durP2;ratioP2
1204;SDS011;592;48.764;9.174;2022-12-18T00:00:40;62.33;;;30.60;;
1204;SDS011;592;48.764;9.174;2022-12-18T00:03:07;79.80;;;30.93;;
1204;SDS011;592;48.764;9.174;2022-12-18T00:05:34;57.40;;;29.67;;
1204;SDS011;592;48.764;9.174;2022-12-18T00:08:02;65.37;;;29.50;;
1204;SDS011;592;48.764;9.174;2022-12-18T00:10:29;59.17;;;28.60;;
1204;SDS011;592;48.764;9.174;2022-12-18T00:12:55;63.10;;;30.00;;
1204;SDS011;592;48.764;9.174;2022-12-18T00:15:22;67.60;;;30.03;;
1204;SDS011;592;48.764;9.174;2022-12-18T00:17:49;58.07;;;28.60;;
1204;SDS011;592;48.764;9.174;2022-12-18T00:20:16;58.13;;;29.50;;
1204;SDS011;592;48.764;9.174;2022-12-18T00:22:46;65.50;;;29.90;;
1204;SDS011;592;48.764;9.174;2022-12-18T00:25:14;61.30;;;30.17;;
1204;SDS011;592;48.764;9.174;2022-12-18T00:27:41;58.23;;;28.50;;
1204;SDS011;592;48.764;9.174;2022-12-18T00:30:08;65.47;;;30.80;;
1204;SDS011;592;48.764;9.174;2022-12-18T00:32:36;55.70;;;28.77;;
1204;SDS011;592;48.764;9.174;2022-12-18T00:35:03;53.93;;;28.03;;
1204;SDS011;592;48.764;9.174;2022-12-18T00:37:31;65.53;;;29.07;;
1204;SDS011;592;48.764;9.174;2022-12-18T00:39:59;56.70;;;27.90;;
1204;SDS011;592;48.764;9.174;2022-12-18T00:42:27;53.77;;;27.00;;
1204;SDS011;592;48.764;9.174;2022-12-18T00:45:13;59.07;;;30.70;;
1204;SDS011;592;48.764;9.174;2022-12-18T00:47:40;55.23;;;26.87;;
1204;SDS011;592;48.764;9.174;2022-12-18T00:50:07;60.93;;;27.83;;
1204;SDS011;592;48.764;9.174;2022-12-18T00:52:35;63.97;;;28.30;;
1204;SDS011;592;48.764;9.174;2022-12-18T00:55:02;60.63;;;27.80;;
1204;SDS011;592;48.764;9.174;2022-12-18T00:57:31;56.37;;;27.37;;
1204;SDS011;592;48.764;9.174;2022-12-18T00:59:57;55.20;;;27.47;;
1204;SDS011;592;48.764;9.174;2022-12-18T01:02:24;64.63;;;29.23;;
1204;SDS011;592;48.764;9.174;2022-12-18T01:04:51;65.67;;;28.93;;
1204;SDS011;592;48.764;9.174;2022-12-18T01:07:18;56.20;;;27.43;;
1204;SDS011;592;48.764;9.174;2022-12-18T01:09:44;62.43;;;32.10;;
1204;SDS011;592;48.764;9.174;2022-12-18T01:12:11;55.03;;;26.40;;
1204;SDS011;592;48.764;9.174;2022-12-18T01:14:39;62.33;;;29.97;;
1204;SDS011;592;48.764;9.174;2022-12-18T01:17:06;66.87;;;29.60;;
1204;SDS011;592;48.764;9.174;2022-12-18T01:19:33;56.90;;;28.43;;
1204;SDS011;592;48.764;9.174;2022-12-18T01:22:00;64.23;;;27.80;;
1204;SDS011;592;48.764;9.174;2022-12-18T01:24:26;56.93;;;30.03;;
1204;SDS011;592;48.764;9.174;2022-12-18T01:26:53;59.43;;;29.30;;
1204;SDS011;592;48.764;9.174;2022-12-18T01:29:22;64.87;;;28.30;;
1204;SDS011;592;48.764;9.174;2022-12-18T01:31:50;63.00;;;28.57;;
1204;SDS011;592;48.764;9.174;2022-12-18T01:34:17;64.93;;;28.23;;
1204;SDS011;592;48.764;9.174;2022-12-18T01:36:44;59.47;;;29.53;;
1204;SDS011;592;48.764;9.174;2022-12-18T01:39:11;64.10;;;28.80;;
1204;SDS011;592;48.764;9.174;2022-12-18T01:41:40;59.77;;;28.87;;
1204;SDS011;592;48.764;9.174;2022-12-18T01:47:36;57.63;;;28.73;;
1204;SDS011;592;48.764;9.174;2022-12-18T01:50:06;55.87;;;27.37;;
1204;SDS011;592;48.764;9.174;2022-12-18T01:52:36;58.83;;;27.43;;
1204;SDS011;592;48.764;9.174;2022-12-18T01:55:06;57.50;;;26.10;;
1204;SDS011;592;48.764;9.174;2022-12-18T01:57:34;54.37;;;27.30;;
1204;SDS011;592;48.764;9.174;2022-12-18T02:00:04;61.10;;;27.17;;
1204;SDS011;592;48.764;9.174;2022-12-18T02:02:32;51.60;;;27.40;;
1204;SDS011;592;48.764;9.174;2022-12-18T02:05:00;55.33;;;27.80;;
1204;SDS011;592;48.764;9.174;2022-12-18T02:07:31;51.33;;;26.37;;
1204;SDS011;592;48.764;9.174;2022-12-18T02:10:05;57.90;;;27.90;;
1204;SDS011;592;48.764;9.174;2022-12-18T02:12:39;56.77;;;27.60;;
1204;SDS011;592;48.764;9.174;2022-12-18T02:15:13;56.73;;;27.70;;
1204;SDS011;592;48.764;9.174;2022-12-18T02:17:46;57.70;;;27.40;;
1204;SDS011;592;48.764;9.174;2022-12-18T02:20:20;58.77;;;29.07;;
1204;SDS011;592;48.764;9.174;2022-12-18T02:22:55;57.03;;;28.17;;
1204;SDS011;592;48.764;9.174;2022-12-18T02:25:38;57.17;;;26.83;;
1204;SDS011;592;48.764;9.174;2022-12-18T02:28:15;59.73;;;27.20;;
1204;SDS011;592;48.764;9.174;2022-12-18T02:30:46;53.57;;;24.33;;
1204;SDS011;592;48.764;9.174;2022-12-18T02:33:15;54.20;;;26.60;;
1204;SDS011;592;48.764;9.174;2022-12-18T02:35:45;49.93;;;25.03;;
1204;SDS011;592;48.764;9.174;2022-12-18T02:38:13;57.50;;;26.30;;
1204;SDS011;592;48.764;9.174;2022-12-18T02:40:41;55.87;;;26.47;;
1204;SDS011;592;48.764;9.174;2022-12-18T02:43:09;59.13;;;26.80;;
1204;SDS011;592;48.764;9.174;2022-12-18T02:45:45;48.10;;;23.50;;
1204;SDS011;592;48.764;9.174;2022-12-18T02:48:13;49.10;;;23.73;;
1204;SDS011;592;48.764;9.174;2022-12-18T02:50:41;45.77;;;23.17;;
1204;SDS011;592;48.764;9.174;2022-12-18T02:53:13;45.33;;;20.80;;
1204;SDS011;592;48.764;9.174;2022-12-18T02:55:48;43.37;;;21.37;;
1204;SDS011;592;48.764;9.174;2022-12-18T02:58:26;43.17;;;21.57;;
1204;SDS011;592;48.764;9.174;2022-12-18T03:01:00;43.70;;;21.87;;
1204;SDS011;592;48.764;9.174;2022-12-18T03:03:33;49.67;;;23.20;;
1204;SDS011;592;48.764;9.174;2022-12-18T03:06:06;45.43;;;20.63;;
1204;SDS011;592;48.764;9.174;2022-12-18T03:08:37;40.70;;;19.67;;
1204;SDS011;592;48.764;9.174;2022-12-18T03:11:07;36.70;;;19.20;;
1204;SDS011;592;48.764;9.174;2022-12-18T03:13:36;40.53;;;20.03;;
1204;SDS011;592;48.764;9.174;2022-12-18T03:16:17;44.53;;;20.67;;
1204;SDS011;592;48.764;9.174;2022-12-18T03:18:48;47.07;;;22.07;;
1204;SDS011;592;48.764;9.174;2022-12-18T03:21:17;46.37;;;23.43;;
1204;SDS011;592;48.764;9.174;2022-12-18T03:23:49;49.93;;;24.57;;
1204;SDS011;592;48.764;9.174;2022-12-18T03:26:19;45.07;;;23.63;;
1204;SDS011;592;48.764;9.174;2022-12-18T03:28:49;46.17;;;22.30;;
1204;SDS011;592;48.764;9.174;2022-12-18T03:31:21;50.20;;;24.03;;
1204;SDS011;592;48.764;9.174;2022-12-18T03:33:51;50.30;;;24.00;;
1204;SDS011;592;48.764;9.174;2022-12-18T03:36:19;44.20;;;21.23;;
1204;SDS011;592;48.764;9.174;2022-12-18T03:38:45;42.77;;;22.20;;
1204;SDS011;592;48.764;9.174;2022-12-18T03:41:15;46.37;;;21.33;;
1204;SDS011;592;48.764;9.174;2022-12-18T03:43:46;36.67;;;20.90;;
1204;SDS011;592;48.764;9.174;2022-12-18T03:46:23;41.93;;;20.70;;
1204;SDS011;592;48.764;9.174;2022-12-18T03:48:54;45.70;;;22.73;;
1204;SDS011;592;48.764;9.174;2022-12-18T03:51:26;44.13;;;23.03;;
1204;SDS011;592;48.764;9.174;2022-12-18T03:54:02;44.13;;;20.97;;
1204;SDS011;592;48.764;9.174;2022-12-18T03:56:32;44.23;;;22.53;;
1204;SDS011;592;48.764;9.174;2022-12-18T03:59:02;45.93;;;24.07;;
1204;SDS011;592;48.764;9.174;2022-12-18T04:01:34;40.10;;;20.47;;
1204;SDS011;592;48.764;9.174;2022-12-18T04:04:04;43.37;;;21.03;;
1204;SDS011;592;48.764;9.174;2022-12-18T04:06:33;40.63;;;20.10;;
1204;SDS011;592;48.764;9.174;2022-12-18T04:09:00;52.30;;;22.50;;
1204;SDS011;592;48.764;9.174;2022-12-18T04:11:27;40.50;;;20.17;;
1204;SDS011;592;48.764;9.174;2022-12-18T04:13:55;42.13;;;20.27;;
1204;SDS011;592;48.764;9.174;2022-12-18T04:16:23;41.73;;;21.03;;
1204;SDS011;592;48.764;9.174;2022-12-18T04:18:51;40.47;;;19.23;;
1204;SDS011;592;48.764;9.174;2022-12-18T04:21:18;40.33;;;21.43;;
1204;SDS011;592;48.764;9.174;2022-12-18T04:23:45;43.80;;;20.60;;
1204;SDS011;592;48.764;9.174;2022-12-18T04:26:12;38.20;;;20.43;;
1204;SDS011;592;48.764;9.174;2022-12-18T04:28:39;38.50;;;19.57;;
1204;SDS011;592;48.764;9.174;2022-12-18T04:31:06;35.00;;;20.60;;
1204;SDS011;592;48.764;9.174;2022-12-18T04:33:32;41.73;;;20.67;;
1204;SDS011;592;48.764;9.174;2022-12-18T04:36:00;48.07;;;21.00;;
1204;SDS011;592;48.764;9.174;2022-12-18T04:38:27;40.80;;;20.50;;
1204;SDS011;592;48.764;9.174;2022-12-18T04:40:54;37.73;;;19.70;;
1204;SDS011;592;48.764;9.174;2022-12-18T04:43:21;42.00;;;22.20;;
1204;SDS011;592;48.764;9.174;2022-12-18T04:45:47;45.23;;;19.73;;
1204;SDS011;592;48.764;9.174;2022-12-18T04:48:14;40.47;;;20.50;;
1204;SDS011;592;48.764;9.174;2022-12-18T04:50:41;40.73;;;20.47;;
1204;SDS011;592;48.764;9.174;2022-12-18T04:53:09;47.73;;;21.70;;
1204;SDS011;592;48.764;9.174;2022-12-18T04:55:36;43.20;;;22.20;;
1204;SDS011;592;48.764;9.174;2022-12-18T04:58:03;44.43;;;22.83;;
1204;SDS011;592;48.764;9.174;2022-12-18T05:00:30;47.03;;;21.70;;
1204;SDS011;592;48.764;9.174;2022-12-18T05:02:56;39.77;;;19.73;;
1204;SDS011;592;48.764;9.174;2022-12-18T05:05:23;48.83;;;23.13;;
1204;SDS011;592;48.764;9.174;2022-12-18T05:07:50;45.13;;;21.33;;
1204;SDS011;592;48.764;9.174;2022-12-18T05:10:18;44.53;;;21.40;;
1204;SDS011;592;48.764;9.174;2022-12-18T05:12:45;42.17;;;22.70;;
1204;SDS011;592;48.764;9.174;2022-12-18T05:15:34;51.60;;;21.23;;
1204;SDS011;592;48.764;9.174;2022-12-18T05:18:01;47.27;;;21.87;;
1204;SDS011;592;48.764;9.174;2022-12-18T05:20:29;44.43;;;22.27;;
1204;SDS011;592;48.764;9.174;2022-12-18T05:22:57;41.47;;;20.87;;
1204;SDS011;592;48.764;9.174;2022-12-18T05:25:25;44.70;;;21.60;;
1204;SDS011;592;48.764;9.174;2022-12-18T05:27:52;47.20;;;22.53;;
1204;SDS011;592;48.764;9.174;2022-12-18T05:30:19;42.03;;;20.60;;
1204;SDS011;592;48.764;9.174;2022-12-18T05:32:45;44.87;;;19.63;;
1204;SDS011;592;48.764;9.174;2022-12-18T05:35:12;43.83;;;21.77;;
1204;SDS011;592;48.764;9.174;2022-12-18T05:37:39;43.17;;;21.23;;
1204;SDS011;592;48.764;9.174;2022-12-18T05:40:06;40.20;;;19.63;;
1204;SDS011;592;48.764;9.174;2022-12-18T05:42:35;36.87;;;19.33;;
1204;SDS011;592;48.764;9.174;2022-12-18T05:45:02;39.83;;;19.40;;
1204;SDS011;592;48.764;9.174;2022-12-18T05:47:29;42.67;;;21.67;;
1204;SDS011;592;48.764;9.174;2022-12-18T05:49:56;38.60;;;20.90;;
1204;SDS011;592;48.764;9.174;2022-12-18T05:52:23;41.90;;;19.53;;
1204;SDS011;592;48.764;9.174;2022-12-18T05:54:50;43.03;;;20.57;;
1204;SDS011;592;48.764;9.174;2022-12-18T05:57:17;40.70;;;20.93;;
1204;SDS011;592;48.764;9.174;2022-12-18T05:59:45;50.83;;;21.03;;
1204;SDS011;592;48.764;9.174;2022-12-18T06:02:12;38.80;;;20.43;;
1204;SDS011;592;48.764;9.174;2022-12-18T06:04:39;42.43;;;19.20;;
1204;SDS011;592;48.764;9.174;2022-12-18T06:07:05;48.33;;;21.07;;
1204;SDS011;592;48.764;9.174;2022-12-18T06:09:32;42.33;;;20.90;;
1204;SDS011;592;48.764;9.174;2022-12-18T06:11:59;38.00;;;19.60;;
1204;SDS011;592;48.764;9.174;2022-12-18T06:14:26;41.03;;;19.80;;
1204;SDS011;592;48.764;9.174;2022-12-18T06:16:54;40.73;;;19.13;;
1204;SDS011;592;48.764;9.174;2022-12-18T06:19:21;40.70;;;20.13;;
1204;SDS011;592;48.764;9.174;2022-12-18T06:21:48;35.07;;;18.10;;
1204;SDS011;592;48.764;9.174;2022-12-18T06:24:15;37.90;;;19.80;;
1204;SDS011;592;48.764;9.174;2022-12-18T06:26:42;38.53;;;18.50;;
1204;SDS011;592;48.764;9.174;2022-12-18T06:29:08;41.37;;;20.97;;
1204;SDS011;592;48.764;9.174;2022-12-18T06:31:35;38.77;;;18.93;;
1204;SDS011;592;48.764;9.174;2022-12-18T06:34:03;42.00;;;19.90;;
1204;SDS011;592;48.764;9.174;2022-12-18T06:36:31;40.13;;;19.23;;
1204;SDS011;592;48.764;9.174;2022-12-18T06:38:57;43.13;;;20.10;;
1204;SDS011;592;48.764;9.174;2022-12-18T06:41:24;43.17;;;19.00;;
1204;SDS011;592;48.764;9.174;2022-12-18T06:43:51;40.73;;;19.17;;
1204;SDS011;592;48.764;9.174;2022-12-18T06:46:18;49.53;;;20.40;;
1204;SDS011;592;48.764;9.174;2022-12-18T06:48:46;41.17;;;20.83;;
1204;SDS011;592;48.764;9.174;2022-12-18T06:51:17;44.20;;;20.30;;
1204;SDS011;592;48.764;9.174;2022-12-18T06:53:44;43.00;;;20.98;;
1204;SDS011;592;48.764;9.174;2022-12-18T06:56:11;45.63;;;21.07;;
1204;SDS011;592;48.764;9.174;2022-12-18T06:58:38;48.47;;;20.17;;
1204;SDS011;592;48.764;9.174;2022-12-18T07:01:06;34.50;;;17.90;;
1204;SDS011;592;48.764;9.174;2022-12-18T07:03:35;37.67;;;19.25;;
1204;SDS011;592;48.764;9.174;2022-12-18T07:06:02;39.20;;;17.93;;
1204;SDS011;592;48.764;9.174;2022-12-18T07:08:30;37.90;;;19.17;;
1204;SDS011;592;48.764;9.174;2022-12-18T07:10:58;38.73;;;19.20;;
1204;SDS011;592;48.764;9.174;2022-12-18T07:13:25;37.07;;;18.43;;
1204;SDS011;592;48.764;9.174;2022-12-18T07:15:52;36.20;;;19.00;;
1204;SDS011;592;48.764;9.174;2022-12-18T07:18:18;36.33;;;20.53;;
1204;SDS011;592;48.764;9.174;2022-12-18T07:20:45;38.33;;;20.30;;
1204;SDS011;592;48.764;9.174;2022-12-18T07:23:12;47.70;;;20.77;;
1204;SDS011;592;48.764;9.174;2022-12-18T07:25:40;42.17;;;19.63;;
1204;SDS011;592;48.764;9.174;2022-12-18T07:28:07;38.30;;;18.13;;
1204;SDS011;592;48.764;9.174;2022-12-18T07:30:33;45.70;;;19.70;;
1204;SDS011;592;48.764;9.174;2022-12-18T07:33:03;37.97;;;19.13;;
1204;SDS011;592;48.764;9.174;2022-12-18T07:35:30;38.00;;;18.40;;
1204;SDS011;592;48.764;9.174;2022-12-18T07:37:56;35.37;;;18.30;;
1204;SDS011;592;48.764;9.174;2022-12-18T07:40:25;37.63;;;18.00;;
1204;SDS011;592;48.764;9.174;2022-12-18T07:42:53;43.83;;;20.30;;
1204;SDS011;592;48.764;9.174;2022-12-18T07:45:20;41.47;;;19.03;;
1204;SDS011;592;48.764;9.174;2022-12-18T07:47:47;42.47;;;20.60;;
1204;SDS011;592;48.764;9.174;2022-12-18T07:50:14;45.23;;;19.27;;
1204;SDS011;592;48.764;9.174;2022-12-18T07:52:40;40.90;;;20.30;;
1204;SDS011;592;48.764;9.174;2022-12-18T07:55:07;42.10;;;21.50;;
1204;SDS011;592;48.764;9.174;2022-12-18T07:57:34;45.70;;;20.53;;
1204;SDS011;592;48.764;9.174;2022-12-18T08:00:03;40.42;;;19.70;;
1204;SDS011;592;48.764;9.174;2022-12-18T08:02:30;42.20;;;22.33;;
1204;SDS011;592;48.764;9.174;2022-12-18T08:04:57;40.53;;;19.30;;
1204;SDS011;592;48.764;9.174;2022-12-18T08:07:24;37.87;;;19.43;;
1204;SDS011;592;48.764;9.174;2022-12-18T08:09:51;41.97;;;19.92;;
1204;SDS011;592;48.764;9.174;2022-12-18T08:12:17;38.33;;;18.90;;
1204;SDS011;592;48.764;9.174;2022-12-18T08:14:44;42.20;;;18.70;;
1204;SDS011;592;48.764;9.174;2022-12-18T08:17:12;52.83;;;21.60;;
1204;SDS011;592;48.764;9.174;2022-12-18T08:19:39;44.10;;;20.73;;
1204;SDS011;592;48.764;9.174;2022-12-18T08:22:06;46.37;;;21.33;;
1204;SDS011;592;48.764;9.174;2022-12-18T08:24:33;43.67;;;20.60;;
1204;SDS011;592;48.764;9.174;2022-12-18T08:26:59;43.73;;;21.77;;
1204;SDS011;592;48.764;9.174;2022-12-18T08:29:26;45.93;;;22.37;;
1204;SDS011;592;48.764;9.174;2022-12-18T08:31:53;45.73;;;22.70;;
1204;SDS011;592;48.764;9.174;2022-12-18T08:34:21;49.10;;;23.43;;
1204;SDS011;592;48.764;9.174;2022-12-18T08:36:47;49.83;;;21.90;;
1204;SDS011;592;48.764;9.174;2022-12-18T08:39:14;49.50;;;21.50;;
1204;SDS011;592;48.764;9.174;2022-12-18T08:41:41;43.33;;;21.70;;
1204;SDS011;592;48.764;9.174;2022-12-18T08:44:28;50.33;;;22.50;;
1204;SDS011;592;48.764;9.174;2022-12-18T08:47:03;49.70;;;23.43;;
1204;SDS011;592;48.764;9.174;2022-12-18T08:49:31;44.80;;;20.33;;
1204;SDS011;592;48.764;9.174;2022-12-18T08:51:58;41.97;;;19.73;;
1204;SDS011;592;48.764;9.174;2022-12-18T08:54:25;45.47;;;21.70;;
1204;SDS011;592;48.764;9.174;2022-12-18T08:56:52;38.90;;;21.87;;
1204;SDS011;592;48.764;9.174;2022-12-18T08:59:19;41.70;;;20.47;;
1204;SDS011;592;48.764;9.174;2022-12-18T09:01:46;44.27;;;22.00;;
1204;SDS011;592;48.764;9.174;2022-12-18T09:04:13;42.60;;;21.00;;
1204;SDS011;592;48.764;9.174;2022-12-18T09:06:41;41.33;;;21.57;;
1204;SDS011;592;48.764;9.174;2022-12-18T09:09:08;46.10;;;21.93;;
1204;SDS011;592;48.764;9.174;2022-12-18T09:11:36;48.13;;;23.77;;
1204;SDS011;592;48.764;9.174;2022-12-18T09:14:03;42.17;;;20.57;;
1204;SDS011;592;48.764;9.174;2022-12-18T09:16:29;41.67;;;21.97;;
1204;SDS011;592;48.764;9.174;2022-12-18T09:18:59;41.17;;;19.10;;
1204;SDS011;592;48.764;9.174;2022-12-18T09:21:30;46.90;;;23.20;;
1204;SDS011;592;48.764;9.174;2022-12-18T09:23:59;43.20;;;21.80;;
1204;SDS011;592;48.764;9.174;2022-12-18T09:26:27;42.03;;;22.17;;
1204;SDS011;592;48.764;9.174;2022-12-18T09:28:53;45.87;;;22.40;;
1204;SDS011;592;48.764;9.174;2022-12-18T09:31:22;48.83;;;22.97;;
1204;SDS011;592;48.764;9.174;2022-12-18T09:33:50;44.40;;;21.90;;
1204;SDS011;592;48.764;9.174;2022-12-18T09:36:17;41.40;;;21.60;;
1204;SDS011;592;48.764;9.174;2022-12-18T09:38:44;49.37;;;22.50;;
1204;SDS011;592;48.764;9.174;2022-12-18T09:41:17;52.40;;;23.97;;
1204;SDS011;592;48.764;9.174;2022-12-18T09:44:00;49.60;;;23.17;;
1204;SDS011;592;48.764;9.174;2022-12-18T09:46:32;43.33;;;23.27;;
1204;SDS011;592;48.764;9.174;2022-12-18T09:49:05;47.13;;;24.73;;
1204;SDS011;592;48.764;9.174;2022-12-18T09:51:37;46.57;;;24.33;;
1204;SDS011;592;48.764;9.174;2022-12-18T09:54:10;45.43;;;23.53;;
1204;SDS011;592;48.764;9.174;2022-12-18T09:56:43;52.43;;;26.77;;
1204;SDS011;592;48.764;9.174;2022-12-18T09:59:14;48.57;;;23.63;;
1204;SDS011;592;48.764;9.174;2022-12-18T10:01:47;48.13;;;24.37;;
1204;SDS011;592;48.764;9.174;2022-12-18T10:04:13;54.93;;;25.33;;
1204;SDS011;592;48.764;9.174;2022-12-18T10:06:42;50.63;;;25.83;;
1204;SDS011;592;48.764;9.174;2022-12-18T10:09:16;48.20;;;25.07;;
1204;SDS011;592;48.764;9.174;2022-12-18T10:11:53;51.37;;;25.00;;
1204;SDS011;592;48.764;9.174;2022-12-18T10:14:27;54.10;;;24.63;;
1204;SDS011;592;48.764;9.174;2022-12-18T10:17:01;50.03;;;23.43;;
1204;SDS011;592;48.764;9.174;2022-12-18T10:19:37;46.13;;;22.53;;
1204;SDS011;592;48.764;9.174;2022-12-18T10:22:16;40.20;;;21.47;;
1204;SDS011;592;48.764;9.174;2022-12-18T10:24:53;46.20;;;22.00;;
1204;SDS011;592;48.764;9.174;2022-12-18T10:27:27;51.40;;;21.70;;
1204;SDS011;592;48.764;9.174;2022-12-18T10:29:55;51.00;;;23.00;;
1204;SDS011;592;48.764;9.174;2022-12-18T10:32:24;48.80;;;22.07;;
1204;SDS011;592;48.764;9.174;2022-12-18T10:34:53;41.30;;;21.70;;
1204;SDS011;592;48.764;9.174;2022-12-18T10:37:22;43.83;;;21.73;;
1204;SDS011;592;48.764;9.174;2022-12-18T10:40:04;47.60;;;22.97;;
1204;SDS011;592;48.764;9.174;2022-12-18T10:42:35;42.40;;;20.70;;
1204;SDS011;592;48.764;9.174;2022-12-18T10:45:03;46.83;;;21.50;;
1204;SDS011;592;48.764;9.174;2022-12-18T10:47:34;43.50;;;21.40;;
1204;SDS011;592;48.764;9.174;2022-12-18T10:50:01;42.87;;;21.30;;
1204;SDS011;592;48.764;9.174;2022-12-18T10:52:29;50.87;;;22.57;;
1204;SDS011;592;48.764;9.174;2022-12-18T10:54:57;45.27;;;22.30;;
1204;SDS011;592;48.764;9.174;2022-12-18T10:57:31;38.90;;;20.60;;
1204;SDS011;592;48.764;9.174;2022-12-18T11:00:19;46.90;;;22.00;;
1204;SDS011;592;48.764;9.174;2022-12-18T11:02:51;47.10;;;22.93;;
1204;SDS011;592;48.764;9.174;2022-12-18T11:05:26;44.30;;;23.30;;
1204;SDS011;592;48.764;9.174;2022-12-18T11:07:54;49.57;;;22.87;;
1204;SDS011;592;48.764;9.174;2022-12-18T11:10:22;47.93;;;22.30;;
1204;SDS011;592;48.764;9.174;2022-12-18T11:12:52;41.60;;;22.40;;
1204;SDS011;592;48.764;9.174;2022-12-18T11:15:21;45.90;;;22.30;;
1204;SDS011;592;48.764;9.174;2022-12-18T11:17:52;45.40;;;22.07;;
1204;SDS011;592;48.764;9.174;2022-12-18T11:20:20;43.83;;;22.13;;
1204;SDS011;592;48.764;9.174;2022-12-18T11:22:57;42.20;;;20.23;;
1204;SDS011;592;48.764;9.174;2022-12-18T11:25:25;42.67;;;22.33;;
1204;SDS011;592;48.764;9.174;2022-12-18T11:27:56;39.60;;;20.23;;
1204;SDS011;592;48.764;9.174;2022-12-18T11:30:27;42.43;;;20.33;;
1204;SDS011;592;48.764;9.174;2022-12-18T11:32:56;42.17;;;20.63;;
1204;SDS011;592;48.764;9.174;2022-12-18T11:35:32;42.53;;;21.83;;
1204;SDS011;592;48.764;9.174;2022-12-18T11:38:05;45.57;;;21.90;;
1204;SDS011;592;48.764;9.174;2022-12-18T11:40:40;48.93;;;23.60;;
1204;SDS011;592;48.764;9.174;2022-12-18T11:43:13;48.43;;;23.43;;
1204;SDS011;592;48.764;9.174;2022-12-18T11:45:45;54.70;;;24.87;;
1204;SDS011;592;48.764;9.174;2022-12-18T11:48:18;46.40;;;22.10;;
1204;SDS011;592;48.764;9.174;2022-12-18T11:50:49;44.57;;;19.87;;
1204;SDS011;592;48.764;9.174;2022-12-18T11:53:17;40.80;;;20.47;;
1204;SDS011;592;48.764;9.174;2022-12-18T11:55:47;44.20;;;21.17;;
1204;SDS011;592;48.764;9.174;2022-12-18T11:58:26;43.50;;;20.40;;
1204;SDS011;592;48.764;9.174;2022-12-18T12:01:07;40.00;;;18.63;;
1204;SDS011;592;48.764;9.174;2022-12-18T12:03:58;37.43;;;19.03;;
1204;SDS011;592;48.764;9.174;2022-12-18T12:06:36;36.87;;;18.10;;
1204;SDS011;592;48.764;9.174;2022-12-18T12:09:11;44.70;;;20.47;;
1204;SDS011;592;48.764;9.174;2022-12-18T12:11:48;39.53;;;19.33;;
1204;SDS011;592;48.764;9.174;2022-12-18T12:14:28;37.33;;;18.40;;
1204;SDS011;592;48.764;9.174;2022-12-18T12:17:14;44.37;;;21.23;;
1204;SDS011;592;48.764;9.174;2022-12-18T12:19:51;41.43;;;19.13;;
1204;SDS011;592;48.764;9.174;2022-12-18T12:22:28;48.93;;;21.03;;
1204;SDS011;592;48.764;9.174;2022-12-18T12:25:08;42.43;;;18.90;;
1204;SDS011;592;48.764;9.174;2022-12-18T12:27:48;39.60;;;19.17;;
1204;SDS011;592;48.764;9.174;2022-12-18T12:30:19;44.07;;;20.77;;
1204;SDS011;592;48.764;9.174;2022-12-18T12:33:01;36.33;;;19.90;;
1204;SDS011;592;48.764;9.174;2022-12-18T12:35:42;36.40;;;18.53;;
1204;SDS011;592;48.764;9.174;2022-12-18T12:38:14;41.17;;;19.27;;
1204;SDS011;592;48.764;9.174;2022-12-18T12:40:45;42.63;;;19.20;;
1204;SDS011;592;48.764;9.174;2022-12-18T12:43:19;42.30;;;20.27;;
1204;SDS011;592;48.764;9.174;2022-12-18T12:45:50;41.87;;;20.50;;
1204;SDS011;592;48.764;9.174;2022-12-18T12:48:27;36.17;;;17.40;;
1204;SDS011;592;48.764;9.174;2022-12-18T12:51:02;42.40;;;19.77;;
1204;SDS011;592;48.764;9.174;2022-12-18T12:53:36;43.57;;;20.00;;
1204;SDS011;592;48.764;9.174;2022-12-18T12:56:04;44.10;;;20.83;;
1204;SDS011;592;48.764;9.174;2022-12-18T12:58:33;45.83;;;19.30;;
1204;SDS011;592;48.764;9.174;2022-12-18T13:01:09;40.03;;;19.70;;
1204;SDS011;592;48.764;9.174;2022-12-18T13:03:44;45.50;;;20.40;;
1204;SDS011;592;48.764;9.174;2022-12-18T13:06:19;39.10;;;19.60;;
1204;SDS011;592;48.764;9.174;2022-12-18T13:08:55;41.33;;;19.60;;
1204;SDS011;592;48.764;9.174;2022-12-18T13:11:31;42.10;;;19.47;;
1204;SDS011;592;48.764;9.174;2022-12-18T13:17:22;39.10;;;19.27;;
1204;SDS011;592;48.764;9.174;2022-12-18T13:22:45;37.83;;;20.23;;
1204;SDS011;592;48.764;9.174;2022-12-18T13:25:26;42.80;;;21.07;;
1204;SDS011;592;48.764;9.174;2022-12-18T13:28:06;46.70;;;21.27;;
1204;SDS011;592;48.764;9.174;2022-12-18T13:30:42;43.43;;;22.53;;
1204;SDS011;592;48.764;9.174;2022-12-18T13:36:33;45.90;;;22.27;;
1204;SDS011;592;48.764;9.174;2022-12-18T13:45:34;41.17;;;20.33;;
1204;SDS011;592;48.764;9.174;2022-12-18T13:48:13;46.40;;;22.87;;
1204;SDS011;592;48.764;9.174;2022-12-18T13:50:48;41.97;;;22.27;;
1204;SDS011;592;48.764;9.174;2022-12-18T13:53:19;43.30;;;21.67;;
1204;SDS011;592;48.764;9.174;2022-12-18T13:55:49;51.37;;;26.73;;
1204;SDS011;592;48.764;9.174;2022-12-18T13:58:16;56.03;;;30.23;;
1204;SDS011;592;48.764;9.174;2022-12-18T14:00:43;51.83;;;27.17;;
1204;SDS011;592;48.764;9.174;2022-12-18T14:03:17;45.30;;;23.17;;
1204;SDS011;592;48.764;9.174;2022-12-18T14:05:46;41.03;;;20.90;;
1204;SDS011;592;48.764;9.174;2022-12-18T14:08:21;44.27;;;22.03;;
1204;SDS011;592;48.764;9.174;2022-12-18T14:10:51;38.73;;;21.37;;
1204;SDS011;592;48.764;9.174;2022-12-18T14:13:19;45.70;;;22.43;;
1204;SDS011;592;48.764;9.174;2022-12-18T14:15:50;43.80;;;23.10;;
1204;SDS011;592;48.764;9.174;2022-12-18T14:18:19;44.10;;;23.13;;
1204;SDS011;592;48.764;9.174;2022-12-18T14:20:48;45.30;;;22.07;;
1204;SDS011;592;48.764;9.174;2022-12-18T14:23:30;41.93;;;21.70;;
1204;SDS011;592;48.764;9.174;2022-12-18T14:25:59;44.13;;;22.50;;
1204;SDS011;592;48.764;9.174;2022-12-18T14:28:26;41.73;;;21.50;;
1204;SDS011;592;48.764;9.174;2022-12-18T14:30:53;42.40;;;20.77;;
1204;SDS011;592;48.764;9.174;2022-12-18T14:33:21;43.73;;;22.23;;
1204;SDS011;592;48.764;9.174;2022-12-18T14:35:54;49.90;;;23.10;;
1204;SDS011;592;48.764;9.174;2022-12-18T14:38:23;44.47;;;23.20;;
1204;SDS011;592;48.764;9.174;2022-12-18T14:40:56;43.17;;;21.47;;
1204;SDS011;592;48.764;9.174;2022-12-18T14:43:24;42.40;;;21.77;;
1204;SDS011;592;48.764;9.174;2022-12-18T14:45:52;46.43;;;21.93;;
1204;SDS011;592;48.764;9.174;2022-12-18T14:48:20;42.60;;;20.80;;
1204;SDS011;592;48.764;9.174;2022-12-18T14:50:54;45.67;;;23.07;;
1204;SDS011;592;48.764;9.174;2022-12-18T14:53:23;43.23;;;22.13;;
1204;SDS011;592;48.764;9.174;2022-12-18T14:56:03;47.60;;;22.57;;
1204;SDS011;592;48.764;9.174;2022-12-18T14:58:39;42.77;;;21.97;;
1204;SDS011;592;48.764;9.174;2022-12-18T15:01:17;51.80;;;23.37;;
1204;SDS011;592;48.764;9.174;2022-12-18T15:03:45;45.37;;;22.93;;
1204;SDS011;592;48.764;9.174;2022-12-18T15:06:15;47.60;;;22.20;;
1204;SDS011;592;48.764;9.174;2022-12-18T15:08:43;43.60;;;21.47;;
1204;SDS011;592;48.764;9.174;2022-12-18T15:13:54;45.93;;;22.97;;
1204;SDS011;592;48.764;9.174;2022-12-18T15:16:23;46.00;;;22.63;;
1204;SDS011;592;48.764;9.174;2022-12-18T15:18:50;52.20;;;25.13;;
1204;SDS011;592;48.764;9.174;2022-12-18T15:21:18;51.17;;;24.30;;
1204;SDS011;592;48.764;9.174;2022-12-18T15:23:46;55.40;;;24.40;;
1204;SDS011;592;48.764;9.174;2022-12-18T15:26:16;47.27;;;24.47;;
1204;SDS011;592;48.764;9.174;2022-12-18T15:28:46;51.90;;;23.30;;
1204;SDS011;592;48.764;9.174;2022-12-18T15:31:30;47.17;;;23.73;;
1204;SDS011;592;48.764;9.174;2022-12-18T15:34:01;47.57;;;24.30;;
1204;SDS011;592;48.764;9.174;2022-12-18T15:36:36;49.33;;;22.50;;
1204;SDS011;592;48.764;9.174;2022-12-18T15:39:03;50.80;;;24.63;;